Time;durP1;ratioP1;P1;durP2;ratioP2;P2;SDS_P1;SDS_P2;PMS_P1;PMS_P2;Temp;Humidity;BMP_temperature;BMP_pressure;BME280_temperature;BME280_humidity;BME280_pressure;Samples;Min_cycle;Max_cycle;Signal;HPM_P1;HPM_P2
2023/02/18 00:01:21;;;;;;;2.92;1.40;;;10.20;99.90;;;;;;6257519;22;20024;-83
2023/02/18 00:04:08;;;;;;;2.15;1.23;;;10.20;99.90;;;;;;6276534;22;20027;-83
2023/02/18 00:06:58;;;;;;;1.88;1.40;;;10.20;99.90;;;;;;6279280;22;20056;-82
2023/02/18 00:09:45;;;;;;;1.05;0.98;;;10.10;99.90;;;;;;6278574;22;20102;-82
2023/02/18 00:12:32;;;;;;;3.50;1.45;;;10.10;99.90;;;;;;6277895;22;20028;-82
2023/02/18 00:15:19;;;;;;;1.42;1.15;;;10.20;99.90;;;;;;6285883;22;20028;-83
2023/02/18 00:18:07;;;;;;;1.35;1.25;;;10.20;99.90;;;;;;6286200;22;20015;-82
2023/02/18 00:20:54;;;;;;;3.38;1.40;;;10.20;99.90;;;;;;6289949;22;20043;-85
2023/02/18 00:23:41;;;;;;;1.73;1.13;;;10.20;99.90;;;;;;6267724;22;20020;-83
2023/02/18 00:26:32;;;;;;;1.10;1.10;;;10.20;99.90;;;;;;6284598;22;20032;-83
2023/02/18 00:29:22;;;;;;;1.40;1.30;;;10.20;99.90;;;;;;6279939;22;20054;-83
2023/02/18 00:32:12;;;;;;;1.50;1.40;;;10.20;99.90;;;;;;6276415;22;20027;-82
2023/02/18 00:34:59;;;;;;;1.40;1.30;;;10.20;99.90;;;;;;6278527;22;20407;-82
2023/02/18 00:37:48;;;;;;;1.60;1.17;;;10.10;99.90;;;;;;6257246;22;20024;-85
2023/02/18 00:40:42;;;;;;;2.70;1.60;;;10.20;99.90;;;;;;6279433;22;20020;-83
2023/02/18 00:43:29;;;;;;;1.20;1.10;;;10.20;99.90;;;;;;6278638;22;20020;-83
2023/02/18 00:46:17;;;;;;;1.20;1.10;;;10.20;99.90;;;;;;6277875;22;20087;-83
2023/02/18 00:49:04;;;;;;;1.90;1.27;;;10.10;99.90;;;;;;6275716;22;20038;-83
2023/02/18 00:51:52;;;;;;;1.27;1.17;;;10.10;99.90;;;;;;6254589;22;20032;-84
2023/02/18 00:54:39;;;;;;;1.95;1.35;;;10.00;99.90;;;;;;6254641;22;20520;-84
2023/02/18 00:57:26;;;;;;;1.65;1.30;;;10.10;99.90;;;;;;6274461;22;20024;-83
2023/02/18 01:00:13;;;;;;;1.40;1.30;;;10.00;99.90;;;;;;6278574;22;20134;-83
2023/02/18 01:03:01;;;;;;;2.03;1.50;;;10.00;99.90;;;;;;6277704;22;20027;-84
2023/02/18 01:05:51;;;;;;;1.45;1.35;;;10.00;99.90;;;;;;6276432;22;20024;-83
2023/02/18 01:08:42;;;;;;;1.77;1.35;;;10.00;99.90;;;;;;6276524;22;20633;-83
2023/02/18 01:11:29;;;;;;;1.42;1.25;;;10.00;99.90;;;;;;6276006;22;20028;-83
2023/02/18 01:14:16;;;;;;;2.47;1.50;;;9.90;99.90;;;;;;6278077;22;20020;-84
2023/02/18 01:17:03;;;;;;;2.72;1.83;;;9.90;99.90;;;;;;6253038;22;20117;-83
2023/02/18 01:19:50;;;;;;;2.00;1.70;;;9.90;99.90;;;;;;6275453;22;20028;-85
2023/02/18 01:22:40;;;;;;;2.97;1.40;;;9.80;99.90;;;;;;6276216;22;20020;-84
2023/02/18 01:25:27;;;;;;;1.65;1.40;;;9.80;99.90;;;;;;6254895;22;20030;-83
2023/02/18 01:28:14;;;;;;;2.30;1.80;;;9.80;99.90;;;;;;6278744;22;20043;-83
2023/02/18 01:31:11;;;;;;;1.38;1.27;;;9.80;99.90;;;;;;6253279;22;20035;-85
2023/02/18 01:33:58;;;;;;;2.00;1.50;;;9.80;99.90;;;;;;6277720;22;20119;-83
2023/02/18 01:36:45;;;;;;;1.63;1.52;;;9.80;99.90;;;;;;6256227;22;20024;-84
2023/02/18 01:39:33;;;;;;;2.00;1.80;;;9.80;99.90;;;;;;6276979;22;20035;-83
2023/02/18 01:42:26;;;;;;;5.40;1.77;;;9.80;99.90;;;;;;6276356;22;20024;-84
2023/02/18 01:45:32;;;;;;;1.60;1.50;;;9.80;99.90;;;;;;6276379;22;20081;-86
2023/02/18 01:48:24;;;;;;;2.78;1.98;;;9.80;99.90;;;;;;6278391;22;20028;-84
2023/02/18 01:51:31;;;;;;;3.72;1.85;;;9.80;99.90;;;;;;6253983;22;20027;-84
2023/02/18 01:54:31;;;;;;;2.30;2.10;;;9.80;99.90;;;;;;6277911;22;20023;-83
2023/02/18 01:57:31;;;;;;;2.33;1.85;;;9.80;99.90;;;;;;6277074;22;20019;-83
2023/02/18 02:00:22;;;;;;;2.20;2.00;;;9.70;93.60;;;;;;6252915;22;20082;-83
2023/02/18 02:03:09;;;;;;;3.40;2.25;;;9.70;79.70;;;;;;6278084;22;20023;-81
2023/02/18 02:05:57;;;;;;;5.32;2.10;;;9.80;59.00;;;;;;6277729;22;20452;-83
2023/02/18 02:08:46;;;;;;;2.40;1.90;;;9.70;44.40;;;;;;6275779;22;20031;-82
2023/02/18 02:11:36;;;;;;;2.40;2.20;;;9.70;33.10;;;;;;6254846;22;20027;-83
2023/02/18 02:15:01;;;;;;;3.15;1.92;;;9.70;26.40;;;;;;6276373;22;20108;-83
2023/02/18 02:17:51;;;;;;;2.10;1.88;;;9.70;19.50;;;;;;6276888;22;20108;-84
2023/02/18 02:21:12;;;;;;;3.45;2.17;;;9.70;6.20;;;;;;6277764;22;20050;-85
2023/02/18 02:23:59;;;;;;;2.33;2.10;;;9.70;1.40;;;;;;6274254;22;20099;-82
2023/02/18 02:27:10;;;;;;;2.72;2.20;;;9.70;1.00;;;;;;6277578;22;20023;-82
2023/02/18 02:30:08;;;;;;;1.95;1.77;;;9.60;2.80;;;;;;6275924;22;20035;-83
2023/02/18 02:33:18;;;;;;;1.83;1.73;;;9.50;18.50;;;;;;6277079;22;20088;-82
2023/02/18 02:36:35;;;;;;;2.25;2.05;;;9.40;72.10;;;;;;6254422;22;20358;-83
2023/02/18 02:39:37;;;;;;;3.08;1.90;;;9.20;99.90;;;;;;6274814;22;20023;-82
2023/02/18 02:42:50;;;;;;;5.05;1.80;;;9.20;99.90;;;;;;6275546;22;20028;-82
2023/02/18 02:45:56;;;;;;;2.38;2.17;;;9.20;99.90;;;;;;6277542;22;20023;-83
2023/02/18 02:48:49;;;;;;;6.20;2.08;;;9.20;1.00;;;;;;6277696;22;20047;-83
2023/02/18 02:52:07;;;;;;;2.40;2.10;;;9.20;1.00;;;;;;6275670;22;20035;-84
2023/02/18 02:54:54;;;;;;;2.65;2.25;;;9.10;99.10;;;;;;6273841;22;20208;-82
2023/02/18 02:57:48;;;;;;;2.83;2.45;;;9.10;99.90;;;;;;6280318;22;20020;-85
2023/02/18 03:00:53;;;;;;;2.88;2.53;;;9.10;99.90;;;;;;6278333;22;20031;-84
2023/02/18 03:04:12;;;;;;;2.28;2.08;;;9.10;99.90;;;;;;6256686;22;20027;-83
2023/02/18 03:07:05;;;;;;;2.67;2.25;;;9.20;1.00;;;;;;6256197;22;20019;-84
2023/02/18 03:10:15;;;;;;;2.53;2.10;;;9.20;1.00;;;;;;6257125;22;20510;-83
2023/02/18 03:13:23;;;;;;;2.13;1.80;;;9.30;1.00;;;;;;6277015;22;20095;-85
2023/02/18 03:16:28;;;;;;;6.60;2.05;;;9.30;1.00;;;;;;6275663;22;20028;-83
2023/02/18 03:19:21;;;;;;;2.72;2.00;;;9.40;1.00;;;;;;6277866;22;20106;-83
2023/02/18 03:22:15;;;;;;;2.33;2.03;;;9.40;99.90;;;;;;6277478;22;20074;-83
2023/02/18 03:25:06;;;;;;;1.88;1.67;;;9.40;99.90;;;;;;6257002;22;20039;-83
2023/02/18 03:28:01;;;;;;;2.28;2.08;;;9.50;99.90;;;;;;6278547;22;20050;-83
2023/02/18 03:30:53;;;;;;;1.90;1.80;;;9.40;99.90;;;;;;6276096;22;20035;-85
2023/02/18 03:33:50;;;;;;;2.22;2.03;;;9.40;99.90;;;;;;6277460;22;20031;-82
2023/02/18 03:36:38;;;;;;;2.22;2.00;;;9.40;99.90;;;;;;6276609;22;20065;-82
2023/02/18 03:39:29;;;;;;;2.92;2.10;;;9.40;99.90;;;;;;6276753;22;20175;-83
2023/02/18 03:42:18;;;;;;;2.50;2.30;;;9.30;99.90;;;;;;6277424;22;20046;-81
2023/02/18 03:45:05;;;;;;;1.90;1.70;;;9.10;99.90;;;;;;6275752;22;20295;-83
2023/02/18 03:47:57;;;;;;;1.85;1.75;;;9.00;1.00;;;;;;6277410;22;20423;-80
2023/02/18 03:50:44;;;;;;;2.73;2.37;;;9.00;1.00;;;;;;6275860;22;20028;-83
2023/02/18 03:53:31;;;;;;;2.83;2.15;;;8.90;99.90;;;;;;6276835;22;20027;-83
2023/02/18 03:56:19;;;;;;;2.58;2.03;;;8.80;99.90;;;;;;6275445;22;20024;-83
2023/02/18 03:59:06;;;;;;;3.80;1.98;;;8.70;99.90;;;;;;6277393;22;20300;-83
2023/02/18 04:01:54;;;;;;;2.45;2.20;;;8.60;1.00;;;;;;6255189;22;20035;-83
2023/02/18 04:04:44;;;;;;;2.30;2.00;;;8.60;1.00;;;;;;6279983;22;20023;-84
2023/02/18 04:07:34;;;;;;;3.55;2.25;;;8.50;99.90;;;;;;6279611;22;20304;-83
2023/02/18 04:10:21;;;;;;;2.97;2.67;;;8.50;99.90;;;;;;6277530;22;20042;-83
2023/02/18 04:13:09;;;;;;;2.83;2.20;;;8.40;1.00;;;;;;6278639;22;20031;-84
2023/02/18 04:15:56;;;;;;;3.35;2.15;;;8.30;99.90;;;;;;6255932;22;20086;-84
2023/02/18 04:18:43;;;;;;;2.20;2.00;;;8.20;1.00;;;;;;6278705;22;20046;-83
2023/02/18 04:21:31;;;;;;;2.78;2.58;;;8.10;80.70;;;;;;6278701;22;20035;-83
2023/02/18 04:24:19;;;;;;;3.30;2.30;;;8.10;1.00;;;;;;6278444;22;20090;-83
2023/02/18 04:27:07;;;;;;;3.13;2.47;;;8.00;99.90;;;;;;6278542;22;20020;-83
2023/02/18 04:29:56;;;;;;;2.88;2.33;;;8.00;1.00;;;;;;6278842;22;20020;-83
2023/02/18 04:32:46;;;;;;;2.75;2.28;;;8.00;1.00;;;;;;6277985;22;20024;-83
2023/02/18 04:35:39;;;;;;;2.78;2.47;;;8.00;99.90;;;;;;6278251;22;20028;-83
2023/02/18 04:38:28;;;;;;;3.13;2.55;;;8.00;99.90;;;;;;6274467;22;20024;-83
2023/02/18 04:41:15;;;;;;;4.25;2.60;;;8.00;1.00;;;;;;6255669;22;20023;-84
2023/02/18 04:44:02;;;;;;;2.58;2.35;;;8.10;1.00;;;;;;6276507;22;20054;-83
2023/02/18 04:46:52;;;;;;;2.78;2.33;;;8.20;99.90;;;;;;6254833;22;20020;-84
2023/02/18 04:49:39;;;;;;;2.35;2.10;;;8.30;99.90;;;;;;6275371;22;20034;-83
2023/02/18 04:52:26;;;;;;;2.63;2.35;;;8.30;1.00;;;;;;6276438;22;20115;-83
2023/02/18 04:55:13;;;;;;;2.90;2.13;;;8.40;99.90;;;;;;6276635;22;20028;-83
2023/02/18 04:58:00;;;;;;;4.70;2.80;;;8.40;99.90;;;;;;6275222;22;20304;-84
2023/02/18 05:01:39;;;;;;;4.93;2.22;;;8.40;99.90;;;;;;6276407;22;20019;-83
2023/02/18 05:04:27;;;;;;;3.78;2.38;;;8.40;2.90;;;;;;6124462;23;20124;-83
2023/02/18 05:07:14;;;;;;;2.80;2.45;;;8.40;17.80;;;;;;6126872;22;20022;-82
2023/02/18 05:10:02;;;;;;;2.75;2.40;;;8.50;1.00;;;;;;6255770;22;20031;-82
2023/02/18 05:12:50;;;;;;;2.33;2.10;;;8.50;1.00;;;;;;6254606;22;20027;-82
2023/02/18 05:15:37;;;;;;;2.40;2.17;;;8.60;1.00;;;;;;6275991;22;20079;-82
2023/02/18 05:18:26;;;;;;;3.03;2.00;;;8.70;99.90;;;;;;6253924;22;20288;-83
2023/02/18 05:21:16;;;;;;;3.17;2.10;;;8.70;99.90;;;;;;6276393;22;20051;-83
2023/02/18 05:24:04;;;;;;;2.28;2.08;;;8.70;1.00;;;;;;6274297;22;20034;-82
2023/02/18 05:26:51;;;;;;;2.17;1.98;;;8.80;1.00;;;;;;6275338;22;20165;-83
2023/02/18 05:29:38;;;;;;;1.90;1.75;;;8.90;99.90;;;;;;6277240;22;20422;-81
2023/02/18 05:32:28;;;;;;;2.22;2.08;;;8.90;99.90;;;;;;6277755;22;20031;-80
2023/02/18 05:35:15;;;;;;;2.28;2.08;;;9.00;63.70;;;;;;6277723;22;20031;-80
2023/02/18 05:38:02;;;;;;;4.53;2.20;;;9.10;1.00;;;;;;6276135;22;20371;-79
2023/02/18 05:40:49;;;;;;;2.15;1.85;;;9.10;1.00;;;;;;6276652;22;20114;-79
2023/02/18 05:46:42;;;;;;;2.20;2.00;;;9.20;99.90;;;;;;6275766;22;20028;-82
2023/02/18 05:49:34;;;;;;;3.72;2.50;;;9.30;99.90;;;;;;6274055;22;20023;-82
2023/02/18 05:52:21;;;;;;;2.45;2.10;;;9.30;21.40;;;;;;6253724;22;20028;-82
2023/02/18 05:55:08;;;;;;;2.42;2.22;;;9.30;1.00;;;;;;6274708;22;20024;-82
2023/02/18 05:57:56;;;;;;;2.95;2.30;;;9.30;1.00;;;;;;6274914;22;20059;-83
2023/02/18 06:00:43;;;;;;;2.53;1.85;;;9.30;1.00;;;;;;6278569;22;20024;-83
2023/02/18 06:03:51;;;;;;;3.03;2.40;;;9.20;1.00;;;;;;6273800;22;20035;-81
2023/02/18 06:06:39;;;;;;;2.28;2.08;;;9.20;1.00;;;;;;6258360;22;20419;-82
2023/02/18 06:09:26;;;;;;;2.53;2.15;;;9.20;1.00;;;;;;6274291;22;20055;-84
2023/02/18 06:12:13;;;;;;;2.20;2.00;;;9.20;1.00;;;;;;6255532;22;20034;-82
2023/02/18 06:15:00;;;;;;;2.33;2.13;;;9.20;1.00;;;;;;6252947;22;20081;-83
2023/02/18 06:17:47;;;;;;;2.47;2.28;;;9.20;1.00;;;;;;6276446;22;20024;-83
2023/02/18 06:20:35;;;;;;;2.45;2.20;;;9.20;1.00;;;;;;6255133;22;20073;-83
2023/02/18 06:23:23;;;;;;;2.53;2.30;;;9.20;1.00;;;;;;6257597;22;20054;-88
2023/02/18 06:26:11;;;;;;;3.40;2.40;;;9.10;1.00;;;;;;6278287;22;20304;-88
2023/02/18 07:08:11;;;;;;;3.40;2.03;;;9.50;1.00;;;;;;6125329;23;20018;-85
2023/02/18 07:19:15;;;;;;;3.55;2.22;;;9.40;1.00;;;;;;6124502;23;20097;-82
2023/02/18 07:22:05;;;;;;;4.63;2.97;;;9.40;1.00;;;;;;6192896;23;20020;-84
2023/02/18 07:24:53;;;;;;;3.83;2.95;;;9.50;1.00;;;;;;6193400;23;20020;-83
2023/02/18 07:31:49;;;;;;;3.00;2.70;;;9.50;1.00;;;;;;6277276;22;20426;-84
2023/02/18 07:39:11;;;;;;;4.43;2.88;;;9.60;1.00;;;;;;6278320;22;20025;-84
2023/02/18 07:41:58;;;;;;;2.85;2.47;;;9.70;99.90;;;;;;6278417;22;20351;-85
2023/02/18 07:44:54;;;;;;;2.67;2.47;;;9.80;99.90;;;;;;6215186;23;20098;-83
2023/02/18 07:51:49;;;;;;;3.75;2.33;;;10.00;1.00;;;;;;6214439;23;20048;-83
2023/02/18 07:54:36;;;;;;;2.95;2.50;;;10.10;1.00;;;;;;6214110;23;20028;-82
2023/02/18 07:57:28;;;;;;;2.78;2.47;;;10.20;99.90;;;;;;6192634;23;20051;-83
2023/02/18 08:00:16;;;;;;;;;;;10.20;99.90;;;;;;6213702;23;20025;-83
2023/02/18 08:03:03;;;;;;;2.78;2.38;;;10.30;99.90;;;;;;6214264;23;19930;-82
2023/02/18 08:05:53;;;;;;;3.40;2.33;;;10.40;99.90;;;;;;6214672;23;20051;-82
2023/02/18 08:08:40;;;;;;;2.80;2.22;;;10.30;99.90;;;;;;6211866;23;20028;-83
2023/02/18 08:11:28;;;;;;;3.97;2.65;;;10.40;9.40;;;;;;6215802;23;20029;-83
2023/02/18 08:14:15;;;;;;;2.90;2.50;;;10.50;1.00;;;;;;6213868;23;20037;-83
2023/02/18 08:17:02;;;;;;;6.60;2.47;;;10.60;1.00;;;;;;6275481;22;20039;-84
2023/02/18 08:19:49;;;;;;;2.33;2.00;;;10.60;1.00;;;;;;6279016;22;20079;-85
2023/02/18 08:22:37;;;;;;;2.65;1.98;;;10.60;1.00;;;;;;6278250;22;20027;-86
2023/02/18 08:25:24;;;;;;;2.70;1.98;;;10.60;99.90;;;;;;6255665;22;20024;-85
2023/02/18 08:28:23;;;;;;;2.72;2.13;;;10.70;99.90;;;;;;6280557;22;20454;-83
2023/02/18 08:31:19;;;;;;;3.22;2.40;;;10.70;99.90;;;;;;6255560;22;20079;-86
2023/02/18 08:34:08;;;;;;;3.15;2.72;;;10.80;99.90;;;;;;6284193;22;20028;-84
2023/02/18 08:36:55;;;;;;;4.68;1.92;;;10.80;99.90;;;;;;6287095;22;20042;-85
2023/02/18 08:39:44;;;;;;;1.90;1.77;;;10.90;99.90;;;;;;6266688;22;20370;-85
2023/02/18 08:42:32;;;;;;;1.65;1.38;;;10.90;99.90;;;;;;6267512;22;20030;-85
2023/02/18 08:45:22;;;;;;;2.38;1.92;;;11.00;99.90;;;;;;6294252;22;20030;-81
2023/02/18 08:48:11;;;;;;;1.88;1.67;;;11.00;99.90;;;;;;6292239;22;20093;-85
2023/02/18 08:51:21;;;;;;;1.77;1.65;;;11.00;99.90;;;;;;6280780;22;20113;-83
2023/02/18 08:54:08;;;;;;;2.35;1.67;;;11.00;99.90;;;;;;6281481;22;20028;-84
2023/02/18 08:56:59;;;;;;;1.48;1.35;;;11.10;99.90;;;;;;6283146;22;20058;-84
2023/02/18 08:59:46;;;;;;;2.80;1.70;;;11.10;99.90;;;;;;6239249;22;20023;-82
2023/02/18 09:02:33;;;;;;;3.15;1.58;;;11.20;99.90;;;;;;6281867;22;20077;-83
2023/02/18 09:05:20;;;;;;;1.60;1.50;;;11.20;99.90;;;;;;6255369;22;20034;-84
2023/02/18 09:08:08;;;;;;;2.97;1.75;;;11.20;99.90;;;;;;6278654;22;20024;-85
2023/02/18 09:10:58;;;;;;;2.78;2.20;;;11.20;99.90;;;;;;6256271;22;20034;-86
2023/02/18 09:13:48;;;;;;;2.30;1.80;;;11.20;99.90;;;;;;6277034;22;20330;-84
2023/02/18 09:16:37;;;;;;;3.60;2.03;;;11.10;99.90;;;;;;6277097;22;20086;-85
2023/02/18 09:19:26;;;;;;;1.77;1.67;;;11.20;99.90;;;;;;6255875;22;20027;-85
2023/02/18 09:22:16;;;;;;;2.50;1.60;;;11.20;99.90;;;;;;6254035;22;20059;-84
2023/02/18 09:25:06;;;;;;;1.85;1.60;;;11.30;99.90;;;;;;6277321;22;20094;-85
2023/02/18 09:27:53;;;;;;;2.33;1.40;;;11.60;99.90;;;;;;6256999;22;20044;-85
2023/02/18 09:30:40;;;;;;;1.50;1.40;;;12.00;90.10;;;;;;6277790;22;20082;-86
2023/02/18 09:33:30;;;;;;;2.47;1.60;;;12.40;27.60;;;;;;6278046;22;20093;-85
2023/02/18 09:36:19;;;;;;;1.92;1.40;;;12.80;1.00;;;;;;6277753;22;20038;-84
2023/02/18 09:39:06;;;;;;;1.88;1.60;;;12.80;1.00;;;;;;6278549;22;20035;-85
2023/02/18 09:41:56;;;;;;;1.60;1.50;;;12.90;1.00;;;;;;6253144;22;20020;-83
2023/02/18 09:45:00;;;;;;;1.63;1.33;;;12.50;1.00;;;;;;6278241;22;20030;-84
2023/02/18 09:47:49;;;;;;;2.47;1.50;;;12.70;1.00;;;;;;6279851;22;20067;-85
2023/02/18 09:50:36;;;;;;;1.63;1.40;;;13.00;1.00;;;;;;6279254;22;20031;-87
2023/02/18 09:53:24;;;;;;;2.83;1.45;;;13.00;1.00;;;;;;6259559;22;20028;-85
2023/02/18 09:56:28;;;;;;;1.60;1.35;;;12.90;1.00;;;;;;6276486;22;20033;-84
2023/02/18 09:59:22;;;;;;;1.85;1.40;;;12.80;1.00;;;;;;6277584;22;20102;-85
2023/02/18 10:02:16;;;;;;;1.55;1.45;;;12.70;1.00;;;;;;6256199;22;20026;-85
2023/02/18 10:05:04;;;;;;;1.63;1.48;;;12.60;1.00;;;;;;6276876;22;20024;-85
2023/02/18 10:07:57;;;;;;;1.35;1.25;;;12.70;1.00;;;;;;6277723;22;20456;-86
2023/02/18 10:10:45;;;;;;;2.88;1.23;;;12.60;1.00;;;;;;6258311;22;20028;-84
2023/02/18 10:13:33;;;;;;;2.00;1.35;;;12.80;1.00;;;;;;6277950;22;20121;-84
2023/02/18 10:16:25;;;;;;;2.80;1.50;;;12.60;1.00;;;;;;6277994;22;20038;-85
2023/02/18 10:19:18;;;;;;;2.43;1.63;;;12.60;1.00;;;;;;6277750;22;20081;-85
2023/02/18 10:22:07;;;;;;;1.90;1.40;;;12.50;1.00;;;;;;6277159;22;20251;-85
2023/02/18 10:25:04;;;;;;;2.28;1.83;;;12.30;1.00;;;;;;6279195;22;20035;-85
2023/02/18 10:27:53;;;;;;;3.75;1.30;;;12.10;1.00;;;;;;6258057;22;20035;-83
2023/02/18 10:30:52;;;;;;;1.90;1.65;;;12.10;1.00;;;;;;6278002;22;20485;-85
2023/02/18 10:33:50;;;;;;;1.63;1.52;;;12.20;1.00;;;;;;6278581;22;20028;-83
2023/02/18 10:36:48;;;;;;;7.32;2.38;;;12.20;1.00;;;;;;6236396;22;20027;-84
2023/02/18 10:40:07;;;;;;;2.45;1.73;;;12.40;1.00;;;;;;6255686;22;20031;-84
2023/02/18 10:43:32;;;;;;;2.28;1.90;;;12.50;1.00;;;;;;6250374;22;20073;-84
2023/02/18 10:46:34;;;;;;;2.22;1.58;;;12.50;1.00;;;;;;6243980;22;20518;-84
2023/02/18 10:49:55;;;;;;;3.53;1.80;;;12.30;1.00;;;;;;6255319;22;20027;-82
2023/02/18 10:52:50;;;;;;;3.92;1.85;;;12.40;1.00;;;;;;6278445;22;20024;-85
2023/02/18 10:55:42;;;;;;;2.25;2.00;;;12.60;1.00;;;;;;6278330;22;20027;-85
2023/02/18 10:58:30;;;;;;;2.13;1.50;;;12.40;1.00;;;;;;6280632;22;20430;-85
2023/02/18 11:01:22;;;;;;;3.05;1.50;;;12.40;1.00;;;;;;6278279;22;20079;-85
2023/02/18 11:04:19;;;;;;;3.90;1.55;;;12.40;99.90;;;;;;6257586;22;20024;-85
2023/02/18 11:07:22;;;;;;;1.83;1.52;;;12.30;99.90;;;;;;6255591;22;20023;-84
2023/02/18 11:10:17;;;;;;;1.58;1.38;;;12.20;99.90;;;;;;6256176;22;20039;-84
2023/02/18 11:13:08;;;;;;;1.33;1.23;;;12.20;99.90;;;;;;6257961;22;20106;-85
2023/02/18 11:16:05;;;;;;;3.13;1.70;;;12.20;99.90;;;;;;6278565;22;20039;-83
2023/02/18 11:18:52;;;;;;;2.03;1.50;;;12.40;99.90;;;;;;6278667;22;20300;-85
2023/02/18 11:21:40;;;;;;;1.25;1.20;;;12.40;99.90;;;;;;6258623;22;20034;-84
2023/02/18 11:24:28;;;;;;;4.32;1.15;;;12.40;99.90;;;;;;6277284;22;20019;-83
2023/02/18 11:27:43;;;;;;;2.00;1.63;;;12.50;99.90;;;;;;6237693;22;20335;-85
2023/02/18 11:30:37;;;;;;;4.40;1.67;;;12.30;99.90;;;;;;6259545;22;20028;-83
2023/02/18 11:33:44;;;;;;;5.63;1.50;;;12.30;99.90;;;;;;6256545;22;20269;-86
2023/02/18 11:36:37;;;;;;;1.70;1.13;;;12.30;99.90;;;;;;6279651;22;20023;-85
2023/02/18 11:39:28;;;;;;;;;;;12.40;99.90;;;;;;6238320;22;20046;-86
2023/02/18 11:42:18;;;;;;;1.30;1.00;;;12.60;99.90;;;;;;6258255;22;19923;-86
2023/02/18 11:45:26;;;;;;;1.88;0.90;;;12.90;99.90;;;;;;6257719;22;20450;-83
2023/02/18 11:48:18;;;;;;;1.05;0.90;;;13.40;99.90;;;;;;6260251;22;20087;-87
2023/02/18 11:51:05;;;;;;;2.78;1.00;;;13.60;99.90;;;;;;6257152;22;20055;-86
2023/02/18 11:54:16;;;;;;;1.52;1.10;;;13.50;99.90;;;;;;6280578;22;20157;-86
2023/02/18 11:57:05;;;;;;;1.65;1.20;;;13.90;99.90;;;;;;6279148;22;20027;-83
2023/02/18 11:59:54;;;;;;;1.23;1.20;;;14.50;99.90;;;;;;6255174;22;20027;-86
2023/02/18 12:02:41;;;;;;;4.07;1.25;;;14.40;99.90;;;;;;6278136;22;20028;-84
2023/02/18 12:05:31;;;;;;;1.60;1.00;;;14.40;99.90;;;;;;6258236;22;20020;-85
2023/02/18 12:08:22;;;;;;;6.07;1.40;;;14.50;99.90;;;;;;6278570;22;20020;-86
2023/02/18 12:11:21;;;;;;;1.33;1.17;;;14.40;99.90;;;;;;6281382;22;20034;-86
2023/02/18 12:14:23;;;;;;;2.10;1.48;;;14.10;99.90;;;;;;6258044;22;20055;-85
2023/02/18 12:17:39;;;;;;;1.98;1.38;;;13.80;99.90;;;;;;6278923;22;20084;-86
2023/02/18 12:20:52;;;;;;;1.55;1.20;;;13.70;99.90;;;;;;6259846;22;20028;-86
2023/02/18 12:24:09;;;;;;;3.58;1.58;;;13.40;99.90;;;;;;6254861;22;20023;-85
2023/02/18 12:27:29;;;;;;;3.10;1.35;;;13.00;99.90;;;;;;6278777;22;20093;-86
2023/02/18 12:30:25;;;;;;;4.38;1.50;;;12.80;99.90;;;;;;6266933;22;20051;-86
2023/02/18 12:39:12;;;;;;;3.22;1.63;;;12.90;99.90;;;;;;6235426;22;20020;-82
2023/02/18 12:42:31;;;;;;;3.08;1.67;;;12.90;99.90;;;;;;6246190;23;20062;-83
2023/02/18 12:45:43;;;;;;;1.80;1.50;;;12.90;99.90;;;;;;6246725;23;20138;-83
2023/02/18 12:48:50;;;;;;;2.58;1.75;;;12.90;99.90;;;;;;6245853;23;20102;-82
2023/02/18 12:51:45;;;;;;;2.08;1.77;;;12.90;99.90;;;;;;6245771;23;20027;-82
2023/02/18 12:54:55;;;;;;;3.05;1.63;;;12.80;99.90;;;;;;6247461;23;20031;-82
2023/02/18 12:57:51;;;;;;;2.05;1.73;;;12.80;99.90;;;;;;6248419;22;20039;-83
2023/02/18 13:00:44;;;;;;;2.13;1.80;;;12.80;99.90;;;;;;6248859;22;20024;-82
2023/02/18 13:03:46;;;;;;;3.20;1.77;;;12.70;99.90;;;;;;6244526;23;20056;-81
2023/02/18 13:06:51;;;;;;;3.22;1.77;;;12.70;99.90;;;;;;6245244;23;20020;-81
2023/02/18 13:09:47;;;;;;;1.85;1.52;;;12.70;99.90;;;;;;6244667;23;20032;-82
2023/02/18 13:12:46;;;;;;;2.40;1.80;;;12.70;99.90;;;;;;6245527;23;20074;-81
2023/02/18 13:15:46;;;;;;;3.45;2.03;;;12.70;99.90;;;;;;6248999;22;20035;-81
2023/02/18 13:18:39;;;;;;;2.10;1.90;;;12.70;99.90;;;;;;6245178;23;20028;-83
2023/02/18 13:21:27;;;;;;;;;;;12.70;99.90;;;;;;6245062;23;20024;-81
2023/02/18 13:24:34;;;;;;;2.28;1.92;;;12.70;99.90;;;;;;6248188;22;19926;-82
2023/02/18 13:28:00;;;;;;;3.08;2.15;;;12.60;99.90;;;;;;6248208;22;20391;-81
2023/02/18 13:31:26;;;;;;;3.92;2.15;;;12.70;99.90;;;;;;6248027;22;20043;-83
2023/02/18 13:34:29;;;;;;;3.17;1.90;;;12.70;99.90;;;;;;6224962;22;20113;-81
2023/02/18 13:37:17;;;;;;;3.58;2.20;;;12.70;99.90;;;;;;6244412;23;20039;-82
2023/02/18 13:40:22;;;;;;;7.78;4.38;;;12.70;99.90;;;;;;6243900;23;20368;-81
2023/02/18 13:43:20;;;;;;;2.10;1.90;;;12.70;99.90;;;;;;6246097;23;20040;-82
2023/02/18 13:46:13;;;;;;;2.35;2.03;;;12.70;99.90;;;;;;6244617;23;20040;-81
2023/02/18 13:49:00;;;;;;;1.83;1.50;;;12.60;99.90;;;;;;6245117;23;20057;-81
2023/02/18 13:51:50;;;;;;;3.78;1.90;;;12.60;99.90;;;;;;6245314;23;20028;-82
2023/02/18 13:54:59;;;;;;;3.15;2.20;;;12.60;99.90;;;;;;6247192;22;20047;-82
2023/02/18 13:57:48;;;;;;;1.98;1.77;;;12.60;99.90;;;;;;6245620;23;20020;-82
2023/02/18 14:00:54;;;;;;;2.35;1.70;;;12.60;99.90;;;;;;6246393;23;20517;-81
2023/02/18 14:03:41;;;;;;;3.50;2.33;;;12.70;99.90;;;;;;6245006;23;20370;-84
2023/02/18 14:06:32;;;;;;;3.05;2.08;;;12.70;99.90;;;;;;6244842;23;20561;-83
2023/02/18 14:09:22;;;;;;;2.75;2.00;;;12.60;99.90;;;;;;6244170;23;20089;-83
2023/02/18 14:12:36;;;;;;;4.63;2.00;;;12.70;99.90;;;;;;6245568;23;20335;-83
2023/02/18 14:15:24;;;;;;;9.48;2.15;;;12.90;99.90;;;;;;6245982;23;20058;-83
2023/02/18 14:18:14;;;;;;;2.25;2.00;;;13.10;99.90;;;;;;6245882;23;20376;-82
2023/02/18 14:21:11;;;;;;;4.93;1.98;;;13.90;99.90;;;;;;6245331;23;20372;-82
2023/02/18 14:24:00;;;;;;;3.50;1.90;;;14.40;99.90;;;;;;6246812;23;20408;-81
2023/02/18 14:27:05;;;;;;;2.53;1.90;;;14.10;99.90;;;;;;6245739;23;20028;-82
2023/02/18 14:30:03;;;;;;;2.30;2.10;;;13.80;99.90;;;;;;6245614;23;20028;-82
2023/02/18 14:32:58;;;;;;;2.92;2.05;;;13.50;99.90;;;;;;6244356;23;20028;-82
2023/02/18 14:36:18;;;;;;;6.32;1.83;;;13.20;99.90;;;;;;6247031;23;20326;-82
2023/02/18 14:39:08;;;;;;;3.03;1.80;;;13.30;99.90;;;;;;6245349;23;20099;-83
2023/02/18 14:42:07;;;;;;;2.28;2.08;;;13.60;99.90;;;;;;6247229;23;20047;-84
2023/02/18 14:45:31;;;;;;;3.33;1.90;;;13.50;99.90;;;;;;6245466;23;20031;-84
2023/02/18 14:48:26;;;;;;;3.60;2.15;;;13.60;99.90;;;;;;6243860;23;20028;-84
2023/02/18 14:51:42;;;;;;;;;;;14.10;99.90;;;;;;6244923;23;20107;-83
2023/02/18 14:54:40;;;;;;;2.90;2.17;;;14.40;99.90;;;;;;6249056;23;19938;-81
2023/02/18 14:57:35;;;;;;;2.20;2.00;;;14.10;99.90;;;;;;6249892;22;20055;-85
2023/02/18 15:00:34;;;;;;;1.85;1.70;;;13.80;99.90;;;;;;6247387;23;20043;-84
2023/02/18 15:03:21;;;;;;;3.70;2.00;;;13.80;99.90;;;;;;6247047;23;20095;-84
2023/02/18 15:06:23;;;;;;;3.78;1.70;;;13.90;99.90;;;;;;6247856;23;20074;-84
2023/02/18 15:09:20;;;;;;;2.10;1.77;;;13.90;99.90;;;;;;6248266;23;20032;-84
2023/02/18 15:12:13;;;;;;;2.28;1.52;;;14.00;99.90;;;;;;6249489;22;20016;-82
2023/02/18 15:15:04;;;;;;;1.77;1.60;;;13.70;99.90;;;;;;6246514;23;20039;-83
2023/02/18 15:17:51;;;;;;;3.83;1.88;;;13.70;99.90;;;;;;6249707;22;20020;-82
2023/02/18 15:20:51;;;;;;;2.78;2.00;;;14.00;99.90;;;;;;6248513;22;20031;-83
2023/02/18 15:23:40;;;;;;;2.83;1.70;;;13.70;99.90;;;;;;6244130;23;20158;-83
2023/02/18 15:26:27;;;;;;;2.20;1.60;;;13.60;99.90;;;;;;6226843;23;20047;-82
2023/02/18 15:29:33;;;;;;;3.08;1.83;;;13.80;99.90;;;;;;6246678;23;20020;-82
2023/02/18 15:32:26;;;;;;;2.42;1.67;;;13.80;99.90;;;;;;6248692;23;20028;-82
2023/02/18 15:35:16;;;;;;;5.55;2.03;;;13.40;99.90;;;;;;6249095;23;20099;-83
2023/02/18 15:38:14;;;;;;;2.28;2.03;;;13.00;99.90;;;;;;6228226;23;20024;-83
2023/02/18 15:41:02;;;;;;;1.77;1.67;;;12.80;99.90;;;;;;6246691;23;20027;-83
2023/02/18 15:44:03;;;;;;;2.28;1.80;;;12.60;99.90;;;;;;6250009;22;20031;-81
2023/02/18 15:46:51;;;;;;;1.98;1.52;;;12.70;99.90;;;;;;6250305;22;20078;-82
2023/02/18 15:49:44;;;;;;;3.95;1.95;;;12.80;99.90;;;;;;6248817;23;20143;-81
2023/02/18 15:52:37;;;;;;;4.05;2.08;;;13.10;99.90;;;;;;6249735;22;20289;-82
2023/02/18 15:55:34;;;;;;;2.10;1.80;;;13.30;99.90;;;;;;6246105;23;20409;-84
2023/02/18 15:58:29;;;;;;;3.40;2.03;;;13.40;99.90;;;;;;6245104;23;20032;-83
2023/02/18 16:01:28;;;;;;;28.80;12.30;;;13.40;99.90;;;;;;6245052;23;20020;-83
2023/02/18 16:04:15;;;;;;;10.68;3.88;;;13.30;99.90;;;;;;6245769;23;20087;-83
2023/02/18 16:07:33;;;;;;;3.92;1.75;;;13.00;99.90;;;;;;6248027;23;20743;-83
2023/02/18 16:10:34;;;;;;;3.83;2.38;;;12.80;99.90;;;;;;6246668;23;20103;-82
2023/02/18 16:13:28;;;;;;;7.05;4.55;;;12.60;99.90;;;;;;6247106;23;20115;-82
2023/02/18 16:16:39;;;;;;;1.83;1.73;;;12.40;99.90;;;;;;6245927;23;20098;-82
2023/02/18 16:19:30;;;;;;;6.60;2.10;;;12.20;99.90;;;;;;6246258;23;20034;-82
2023/02/18 16:22:29;;;;;;;2.40;1.88;;;12.10;99.90;;;;;;6247541;23;20028;-85
2023/02/18 16:25:34;;;;;;;3.78;2.00;;;12.00;99.90;;;;;;6246496;23;20020;-84